Time;durP1;ratioP1;P1;durP2;ratioP2;P2;SDS_P1;SDS_P2;PMS_P1;PMS_P2;Temp;Humidity;BMP_temperature;BMP_pressure;BME280_temperature;BME280_humidity;BME280_pressure;Samples;Min_cycle;Max_cycle;Signal;HPM_P1;HPM_P2
2022/01/30 00:02:17;;;;;;;3.35;3.00;;;3.70;60.40;;;;;;5053093;28;20087;-57
2022/01/30 00:04:43;;;;;;;3.30;2.70;;;3.80;60.50;;;;;;5053141;28;20021;-58
2022/01/30 00:07:08;;;;;;;6.50;3.70;;;3.70;60.40;;;;;;5053074;28;20043;-57
2022/01/30 00:09:34;;;;;;;3.47;3.03;;;3.70;60.40;;;;;;5053141;28;20025;-58
2022/01/30 00:12:02;;;;;;;5.68;3.50;;;3.60;60.40;;;;;;5051366;28;20393;-54
2022/01/30 00:14:32;;;;;;;3.75;2.90;;;3.50;60.40;;;;;;5044094;28;20025;-58
2022/01/30 00:17:05;;;;;;;4.32;3.55;;;3.40;60.60;;;;;;5053353;28;20017;-58
2022/01/30 00:19:48;;;;;;;4.65;2.70;;;3.40;60.70;;;;;;5047021;28;20100;-58
2022/01/30 00:25:46;;;;;;;4.10;3.45;;;3.20;61.00;;;;;;5045031;28;20021;-58
2022/01/30 00:27:47;;;;;;;4.47;2.90;;;3.20;61.10;;;;;;5043292;28;20037;-58
2022/01/30 00:30:14;;;;;;;5.32;3.70;;;3.10;61.20;;;;;;5032896;28;20018;-58
2022/01/30 00:32:40;;;;;;;3.70;3.10;;;3.10;61.30;;;;;;5046442;28;20017;-58
2022/01/30 00:35:09;;;;;;;5.65;4.15;;;3.10;61.30;;;;;;5052722;28;20536;-58
2022/01/30 00:37:39;;;;;;;4.20;3.08;;;3.10;61.60;;;;;;5052551;28;20020;-58
2022/01/30 00:40:06;;;;;;;6.53;3.22;;;3.00;61.60;;;;;;5036118;28;20052;-58
2022/01/30 00:42:32;;;;;;;7.78;3.53;;;3.00;61.90;;;;;;5044859;28;20476;-58
2022/01/30 00:44:58;;;;;;;5.45;4.20;;;2.90;62.00;;;;;;5052460;28;20155;-58
2022/01/30 00:47:24;;;;;;;5.18;3.35;;;3.00;62.10;;;;;;5039791;28;20013;-57
2022/01/30 00:49:49;;;;;;;3.70;3.13;;;3.00;62.00;;;;;;5044502;28;20027;-58
2022/01/30 00:52:17;;;;;;;5.80;4.55;;;2.90;62.10;;;;;;5052227;28;20025;-58
2022/01/30 00:54:43;;;;;;;5.32;3.75;;;2.90;62.30;;;;;;5044768;28;20548;-58
2022/01/30 00:57:09;;;;;;;7.22;5.32;;;2.90;62.50;;;;;;5052586;28;20388;-58
2022/01/30 00:59:36;;;;;;;5.70;3.80;;;2.90;62.40;;;;;;5044487;28;20021;-58
2022/01/30 01:02:02;;;;;;;7.15;5.47;;;2.90;62.30;;;;;;5045620;28;20303;-58
2022/01/30 01:04:28;;;;;;;7.75;4.57;;;2.90;62.30;;;;;;5039574;28;20076;-58
2022/01/30 01:06:53;;;;;;;7.90;4.38;;;2.90;62.10;;;;;;5050886;28;20025;-57
2022/01/30 01:09:23;;;;;;;6.45;3.85;;;2.80;62.20;;;;;;5052137;28;20025;-58
2022/01/30 01:25:29;;;;;;;5.45;3.88;;;2.60;63.10;;;;;;5042919;28;20043;-59
2022/01/30 01:27:54;;;;;;;5.75;3.60;;;2.60;63.10;;;;;;5051944;28;20025;-58
2022/01/30 01:30:20;;;;;;;6.43;5.05;;;2.60;63.20;;;;;;5051812;28;20029;-58
2022/01/30 01:32:45;;;;;;;5.93;3.78;;;2.70;63.40;;;;;;5051839;28;20388;-58
2022/01/30 01:35:11;;;;;;;4.97;4.13;;;2.70;63.10;;;;;;5051881;28;20477;-59
2022/01/30 01:37:37;;;;;;;6.65;3.75;;;2.70;63.20;;;;;;5046595;28;20018;-58
2022/01/30 01:40:04;;;;;;;6.05;3.70;;;2.70;63.30;;;;;;5043268;28;20029;-58
2022/01/30 01:42:33;;;;;;;4.80;3.33;;;2.70;63.30;;;;;;5033655;28;20454;-58
2022/01/30 01:45:00;;;;;;;7.00;3.63;;;2.60;63.30;;;;;;5052287;28;20455;-58
2022/01/30 01:47:30;;;;;;;5.43;3.88;;;2.60;63.30;;;;;;5047565;28;20071;-58
2022/01/30 01:49:55;;;;;;;9.23;5.63;;;2.60;63.10;;;;;;5031526;28;20136;-58
2022/01/30 01:52:26;;;;;;;6.80;4.40;;;2.70;62.90;;;;;;5055619;28;20056;-58
2022/01/30 01:54:57;;;;;;;7.40;4.28;;;2.60;62.80;;;;;;5033559;28;20022;-58
2022/01/30 01:57:24;;;;;;;5.55;3.47;;;2.60;63.00;;;;;;5054865;28;20063;-58
2022/01/30 01:59:50;;;;;;;7.07;4.65;;;2.60;63.00;;;;;;5055587;28;20029;-58
2022/01/30 02:02:16;;;;;;;7.07;4.43;;;2.60;62.90;;;;;;5055364;28;20021;-57
2022/01/30 02:04:42;;;;;;;5.43;3.78;;;2.60;62.80;;;;;;5048476;28;20092;-58
2022/01/30 02:09:34;;;;;;;5.65;4.22;;;2.60;63.10;;;;;;5055676;28;20096;-58
2022/01/30 02:12:02;;;;;;;7.70;5.28;;;2.60;63.10;;;;;;5031484;28;20037;-58
2022/01/30 02:25:46;;;;;;;7.95;5.45;;;2.60;63.30;;;;;;5044937;28;20067;-58
2022/01/30 02:28:16;;;;;;;6.55;5.45;;;2.70;63.10;;;;;;5053105;28;20480;-57
2022/01/30 02:30:50;;;;;;;5.65;4.22;;;2.70;62.90;;;;;;5045290;28;20041;-58
2022/01/30 02:33:16;;;;;;;6.13;5.40;;;2.70;62.90;;;;;;5055162;28;20100;-55
2022/01/30 02:35:42;;;;;;;6.93;4.07;;;2.70;62.80;;;;;;5054903;28;20499;-56
2022/01/30 02:38:08;;;;;;;5.88;3.88;;;2.60;62.40;;;;;;5045166;28;20053;-58
2022/01/30 02:40:38;;;;;;;7.30;3.65;;;2.60;62.50;;;;;;5041748;28;20088;-57
2022/01/30 02:43:05;;;;;;;5.80;3.60;;;2.50;62.70;;;;;;5051494;28;20104;-57
2022/01/30 02:45:34;;;;;;;6.72;4.75;;;2.50;62.70;;;;;;5046722;28;20097;-58
2022/01/30 02:48:31;;;;;;;5.03;3.60;;;2.50;62.60;;;;;;5051951;28;20028;-58
2022/01/30 02:50:56;;;;;;;5.35;3.80;;;2.50;62.50;;;;;;5054221;28;20139;-58
2022/01/30 02:53:31;;;;;;;5.18;3.72;;;2.50;62.60;;;;;;5054106;28;20096;-58
2022/01/30 02:55:57;;;;;;;8.50;3.85;;;2.40;62.70;;;;;;5054379;28;20032;-58
2022/01/30 02:58:23;;;;;;;4.72;3.35;;;2.40;62.70;;;;;;5054413;28;20025;-58
2022/01/30 03:00:48;;;;;;;7.72;4.72;;;2.40;62.70;;;;;;5054262;28;20423;-58
2022/01/30 03:03:14;;;;;;;4.88;3.65;;;2.40;62.50;;;;;;5050195;28;20048;-57
2022/01/30 03:05:39;;;;;;;7.68;3.78;;;2.40;62.40;;;;;;5054299;28;20083;-58
2022/01/30 03:08:05;;;;;;;5.85;3.83;;;2.40;62.70;;;;;;5054199;28;20484;-57
2022/01/30 03:10:31;;;;;;;6.78;5.10;;;2.40;62.90;;;;;;5043444;28;20022;-55
2022/01/30 03:12:57;;;;;;;5.22;3.70;;;2.50;63.10;;;;;;5039473;28;20029;-58
2022/01/30 03:15:22;;;;;;;5.03;4.03;;;2.40;63.00;;;;;;5052849;28;20070;-58
2022/01/30 03:17:48;;;;;;;4.47;3.13;;;2.40;63.10;;;;;;5054131;28;20033;-55
2022/01/30 03:20:14;;;;;;;7.45;5.47;;;2.50;63.20;;;;;;5043001;28;20124;-57
2022/01/30 03:22:40;;;;;;;7.57;4.13;;;2.60;63.10;;;;;;5052345;28;20104;-58
2022/01/30 03:25:06;;;;;;;8.80;6.07;;;2.60;62.90;;;;;;5048459;28;20039;-57
2022/01/30 03:27:32;;;;;;;7.07;4.22;;;2.60;63.00;;;;;;5053943;28;20088;-58
2022/01/30 03:30:06;;;;;;;5.53;3.53;;;2.60;62.80;;;;;;5054140;28;20109;-57
2022/01/30 03:32:32;;;;;;;6.32;5.07;;;2.60;62.80;;;;;;5053693;28;20036;-58
2022/01/30 03:34:58;;;;;;;7.05;4.15;;;2.60;62.80;;;;;;5053873;28;20025;-56
2022/01/30 03:37:24;;;;;;;4.63;3.42;;;2.60;62.70;;;;;;5039951;28;20025;-58
2022/01/30 03:39:50;;;;;;;4.65;3.35;;;2.60;62.80;;;;;;5047060;28;20017;-57
2022/01/30 03:42:15;;;;;;;8.10;3.58;;;2.60;63.00;;;;;;5043718;28;20462;-58
2022/01/30 03:44:41;;;;;;;4.95;4.40;;;2.60;63.10;;;;;;5053715;28;20029;-57
2022/01/30 03:47:07;;;;;;;5.15;3.58;;;2.70;63.00;;;;;;5053380;28;20067;-57
2022/01/30 03:49:34;;;;;;;6.45;4.50;;;2.70;62.80;;;;;;5053593;28;20491;-58
2022/01/30 03:52:00;;;;;;;5.35;3.50;;;2.70;62.60;;;;;;5053313;28;20025;-58
2022/01/30 03:54:25;;;;;;;5.97;4.60;;;2.70;62.40;;;;;;5047992;28;20029;-58
2022/01/30 03:56:51;;;;;;;11.05;5.28;;;2.70;62.40;;;;;;5053672;28;20116;-57
2022/01/30 03:59:17;;;;;;;6.75;3.65;;;2.80;62.20;;;;;;5053080;28;20525;-58
2022/01/30 04:01:42;;;;;;;5.07;3.42;;;2.80;62.30;;;;;;5053277;28;20077;-58
2022/01/30 04:04:08;;;;;;;8.40;4.88;;;2.80;62.40;;;;;;5052653;28;20021;-58
2022/01/30 04:06:34;;;;;;;6.68;3.60;;;2.90;62.30;;;;;;5052738;28;20035;-58
2022/01/30 04:09:00;;;;;;;6.20;3.75;;;2.90;62.20;;;;;;5053168;28;20029;-58
2022/01/30 04:11:27;;;;;;;4.70;4.20;;;2.80;62.20;;;;;;5029962;28;20109;-58
2022/01/30 04:13:53;;;;;;;5.90;3.95;;;2.90;62.10;;;;;;5050065;28;20488;-57
2022/01/30 04:16:19;;;;;;;5.72;3.45;;;2.90;61.60;;;;;;5042544;28;20083;-58
2022/01/30 04:18:44;;;;;;;7.18;4.93;;;2.90;61.60;;;;;;5047473;28;20021;-56
2022/01/30 04:21:10;;;;;;;4.88;3.40;;;3.00;61.60;;;;;;5052565;28;20066;-58
2022/01/30 04:23:36;;;;;;;6.55;3.83;;;2.90;61.40;;;;;;5050337;28;20018;-56
2022/01/30 04:26:01;;;;;;;7.97;4.05;;;2.90;61.60;;;;;;5052806;28;20052;-58
2022/01/30 04:28:27;;;;;;;5.82;5.03;;;2.90;61.70;;;;;;5030636;28;20076;-58
2022/01/30 04:30:53;;;;;;;4.65;3.78;;;3.00;61.60;;;;;;5052761;28;20021;-57
2022/01/30 04:33:19;;;;;;;5.18;4.03;;;3.00;61.60;;;;;;5052858;28;20107;-58
2022/01/30 04:35:45;;;;;;;7.57;5.20;;;3.00;61.70;;;;;;5052926;28;20048;-55
2022/01/30 04:38:26;;;;;;;6.03;4.40;;;3.00;61.30;;;;;;5052559;28;20060;-56
2022/01/30 04:52:21;;;;;;;5.88;4.55;;;3.00;61.20;;;;;;5052576;28;20422;-58
2022/01/30 04:55:49;;;;;;;6.72;3.78;;;3.10;60.90;;;;;;5052598;28;20021;-58
2022/01/30 04:57:43;;;;;;;5.57;3.47;;;3.00;60.40;;;;;;5026237;28;20060;-59
2022/01/30 05:00:28;;;;;;;6.38;4.78;;;3.00;60.90;;;;;;5052173;28;20029;-60
2022/01/30 05:03:07;;;;;;;5.07;3.60;;;3.00;60.70;;;;;;5046954;28;20025;-60
2022/01/30 05:05:52;;;;;;;5.30;3.42;;;3.00;60.80;;;;;;5051282;28;20041;-59
2022/01/30 05:08:18;;;;;;;5.20;3.80;;;3.00;61.00;;;;;;5050820;28;20637;-60
2022/01/30 05:10:44;;;;;;;5.82;3.45;;;3.00;60.70;;;;;;5039036;28;20014;-60
2022/01/30 05:13:15;;;;;;;7.03;5.10;;;3.00;60.50;;;;;;5049635;28;20037;-60
2022/01/30 05:15:43;;;;;;;5.45;3.55;;;3.00;60.30;;;;;;5052216;28;20499;-58
2022/01/30 05:18:10;;;;;;;7.13;4.85;;;3.00;60.40;;;;;;5050486;28;20040;-59
2022/01/30 05:20:36;;;;;;;5.07;3.83;;;3.00;60.40;;;;;;5034691;28;20111;-60
2022/01/30 05:23:03;;;;;;;6.15;4.40;;;2.90;60.40;;;;;;5043157;28;20025;-59
2022/01/30 05:25:29;;;;;;;4.75;3.35;;;3.00;60.40;;;;;;5039968;28;20044;-60
2022/01/30 05:27:55;;;;;;;6.18;3.65;;;2.90;60.30;;;;;;5045216;28;20064;-60
2022/01/30 05:30:21;;;;;;;5.50;3.15;;;2.90;60.60;;;;;;5051735;28;20029;-60
2022/01/30 05:32:46;;;;;;;5.10;4.22;;;2.80;61.00;;;;;;5051944;28;20039;-60
2022/01/30 05:35:13;;;;;;;4.97;3.33;;;2.90;60.90;;;;;;5049018;28;20061;-60
2022/01/30 05:37:42;;;;;;;6.50;4.65;;;2.90;60.70;;;;;;5037303;28;20025;-60
2022/01/30 05:40:08;;;;;;;6.55;5.13;;;3.00;60.80;;;;;;5036937;28;20499;-60
2022/01/30 05:42:36;;;;;;;8.32;4.22;;;3.00;60.60;;;;;;5039033;28;20029;-60
2022/01/30 05:45:17;;;;;;;4.50;3.13;;;3.00;60.60;;;;;;5048996;28;20051;-60
2022/01/30 05:47:47;;;;;;;6.00;3.83;;;3.00;61.00;;;;;;5052009;28;20013;-60
2022/01/30 05:50:13;;;;;;;6.00;4.32;;;3.00;61.10;;;;;;5051651;28;20017;-59
2022/01/30 05:52:39;;;;;;;8.00;5.25;;;3.00;61.10;;;;;;5041125;28;20018;-60
2022/01/30 05:55:05;;;;;;;8.55;5.40;;;3.10;61.00;;;;;;5046059;28;20357;-60
2022/01/30 05:57:31;;;;;;;6.85;4.60;;;3.10;61.10;;;;;;5051711;28;20017;-60
2022/01/30 05:59:57;;;;;;;4.85;3.72;;;3.10;61.60;;;;;;5051642;28;20037;-58
2022/01/30 06:02:22;;;;;;;4.68;3.30;;;3.10;62.40;;;;;;5051539;28;20473;-60
2022/01/30 06:04:48;;;;;;;5.97;3.67;;;3.00;62.00;;;;;;5051700;28;20083;-59
2022/01/30 06:07:13;;;;;;;4.72;3.63;;;3.00;62.40;;;;;;5051569;28;20471;-58
2022/01/30 06:09:39;;;;;;;6.47;3.67;;;3.00;62.70;;;;;;5036977;28;20470;-60
2022/01/30 06:12:05;;;;;;;5.63;4.40;;;3.00;62.90;;;;;;5042472;28;20021;-59
2022/01/30 06:14:32;;;;;;;6.78;4.85;;;3.00;62.80;;;;;;5051387;28;20396;-58
2022/01/30 06:16:57;;;;;;;4.90;4.10;;;3.00;62.80;;;;;;5051495;28;20021;-60
2022/01/30 06:19:23;;;;;;;6.68;4.30;;;3.10;62.80;;;;;;5051443;28;20025;-60
2022/01/30 06:21:49;;;;;;;4.57;3.28;;;3.10;63.00;;;;;;5051265;28;20045;-60
2022/01/30 06:24:15;;;;;;;5.32;3.08;;;3.00;62.90;;;;;;5050969;28;20103;-60
2022/01/30 06:26:41;;;;;;;4.75;3.90;;;2.90;63.20;;;;;;5042180;28;20473;-60
2022/01/30 06:29:06;;;;;;;3.85;2.90;;;2.90;63.50;;;;;;5050590;28;20385;-60
2022/01/30 06:31:32;;;;;;;4.90;4.15;;;2.80;63.60;;;;;;5054900;28;20112;-60
2022/01/30 06:33:59;;;;;;;4.50;3.30;;;2.80;63.80;;;;;;5054925;28;20362;-60
2022/01/30 06:36:24;;;;;;;5.25;3.65;;;2.70;63.80;;;;;;5054847;28;20377;-60
2022/01/30 06:38:52;;;;;;;4.70;3.40;;;2.70;64.30;;;;;;5041965;28;20037;-60
2022/01/30 06:41:18;;;;;;;5.70;5.05;;;2.60;64.50;;;;;;5025473;28;20069;-60
2022/01/30 06:43:44;;;;;;;5.13;3.60;;;2.60;65.40;;;;;;5043547;28;20022;-60
2022/01/30 06:46:11;;;;;;;4.75;3.17;;;2.60;65.50;;;;;;5039893;28;20500;-60
2022/01/30 06:48:37;;;;;;;6.18;4.57;;;2.50;65.80;;;;;;5054451;28;20033;-60
2022/01/30 06:51:05;;;;;;;5.75;3.72;;;2.60;66.70;;;;;;5054700;28;20481;-60
2022/01/30 06:53:31;;;;;;;4.50;3.22;;;2.60;66.70;;;;;;5054810;28;20025;-60
2022/01/30 06:55:56;;;;;;;5.13;3.38;;;2.50;66.80;;;;;;5054612;28;20025;-59
2022/01/30 06:58:22;;;;;;;4.68;3.30;;;2.50;67.00;;;;;;5054453;28;20025;-60
2022/01/30 07:00:48;;;;;;;6.93;4.65;;;2.50;67.20;;;;;;5032180;28;20068;-60
2022/01/30 07:03:14;;;;;;;4.35;3.20;;;2.50;67.90;;;;;;5049354;28;20163;-60
2022/01/30 07:05:39;;;;;;;5.65;3.40;;;2.50;67.80;;;;;;5052705;28;20056;-60
2022/01/30 07:08:05;;;;;;;7.57;5.25;;;2.40;67.80;;;;;;5048505;28;20473;-60
2022/01/30 07:10:31;;;;;;;6.20;3.80;;;2.40;68.80;;;;;;5054121;28;20033;-60
2022/01/30 07:12:56;;;;;;;4.75;3.70;;;2.40;68.70;;;;;;5053121;28;20036;-59
2022/01/30 07:15:22;;;;;;;6.13;4.80;;;2.30;68.80;;;;;;5054247;28;20044;-59
2022/01/30 07:17:48;;;;;;;4.82;3.80;;;2.30;69.60;;;;;;5045919;28;20028;-60
2022/01/30 07:20:14;;;;;;;4.28;3.25;;;2.20;69.60;;;;;;5036899;28;20046;-60
2022/01/30 07:22:40;;;;;;;7.18;5.50;;;2.20;69.70;;;;;;5044236;28;20428;-60
2022/01/30 07:25:07;;;;;;;5.57;3.60;;;2.20;70.70;;;;;;5046294;28;20017;-59
2022/01/30 07:27:37;;;;;;;5.22;3.30;;;2.10;70.70;;;;;;5053490;28;20025;-60
2022/01/30 07:30:04;;;;;;;5.05;3.80;;;2.10;70.70;;;;;;5053954;28;20017;-60
2022/01/30 07:32:30;;;;;;;6.20;3.72;;;2.00;70.90;;;;;;5044704;28;20390;-59
2022/01/30 07:34:56;;;;;;;4.10;3.72;;;1.90;70.80;;;;;;5036925;28;20017;-60
2022/01/30 07:37:23;;;;;;;5.80;3.50;;;1.90;71.10;;;;;;5040119;28;20072;-60
2022/01/30 07:39:48;;;;;;;3.63;3.30;;;1.80;71.70;;;;;;5050114;28;20108;-60
2022/01/30 07:42:14;;;;;;;5.85;4.82;;;1.70;71.80;;;;;;5053746;28;20417;-60
2022/01/30 07:44:40;;;;;;;11.25;3.72;;;1.70;73.00;;;;;;5032469;28;20473;-60
2022/01/30 07:47:06;;;;;;;6.82;4.05;;;1.70;72.80;;;;;;5034780;28;20025;-59
2022/01/30 07:49:32;;;;;;;5.93;3.90;;;1.70;72.90;;;;;;5024741;28;20488;-59
2022/01/30 07:51:58;;;;;;;6.30;3.58;;;1.70;72.90;;;;;;5023840;28;20112;-60
2022/01/30 07:54:23;;;;;;;7.13;5.60;;;1.70;72.80;;;;;;5044594;28;20399;-60
2022/01/30 07:56:49;;;;;;;6.60;5.90;;;1.80;73.40;;;;;;5039510;28;20044;-60
2022/01/30 07:59:14;;;;;;;5.53;3.47;;;2.00;73.50;;;;;;5053355;28;20032;-60
2022/01/30 08:01:40;;;;;;;5.38;3.78;;;1.90;73.00;;;;;;5052893;28;20056;-60
2022/01/30 08:04:07;;;;;;;6.93;3.65;;;1.90;73.00;;;;;;5053131;28;20025;-60
2022/01/30 08:06:33;;;;;;;5.78;4.00;;;1.90;72.90;;;;;;5052987;28;20099;-60
2022/01/30 08:08:59;;;;;;;5.45;3.33;;;1.90;73.10;;;;;;5029963;28;20072;-60
2022/01/30 08:11:25;;;;;;;7.63;5.20;;;1.90;73.70;;;;;;5039936;28;20036;-59
2022/01/30 08:13:51;;;;;;;6.60;3.92;;;2.00;73.50;;;;;;5053202;28;20487;-58
2022/01/30 08:16:18;;;;;;;5.53;4.25;;;2.10;73.30;;;;;;5052871;28;20032;-59
2022/01/30 08:18:44;;;;;;;6.72;5.40;;;2.00;73.00;;;;;;5040374;28;20477;-59
2022/01/30 08:21:10;;;;;;;6.05;4.10;;;2.10;73.50;;;;;;5050664;28;20045;-60
2022/01/30 08:23:35;;;;;;;4.35;3.40;;;2.10;73.30;;;;;;5049177;28;20104;-59
2022/01/30 08:26:02;;;;;;;4.88;3.53;;;2.10;73.40;;;;;;5046705;28;20026;-60
2022/01/30 08:28:28;;;;;;;7.43;4.13;;;2.20;74.00;;;;;;5036278;28;20409;-60
2022/01/30 08:30:54;;;;;;;7.63;3.80;;;2.20;73.30;;;;;;5024602;28;20030;-60
2022/01/30 08:33:19;;;;;;;5.35;3.88;;;2.30;73.40;;;;;;5029373;28;20029;-60
2022/01/30 08:35:45;;;;;;;6.20;5.57;;;2.40;73.50;;;;;;5024760;28;20026;-60
2022/01/30 08:38:15;;;;;;;5.35;4.30;;;2.50;73.70;;;;;;5030113;28;20064;-59
2022/01/30 08:40:41;;;;;;;7.97;5.78;;;2.60;73.30;;;;;;5041568;28;20037;-60
2022/01/30 08:43:06;;;;;;;6.60;4.32;;;2.70;73.50;;;;;;5032609;28;20037;-60
2022/01/30 08:45:32;;;;;;;6.00;4.00;;;2.70;73.20;;;;;;5052091;28;20025;-60
2022/01/30 08:47:58;;;;;;;6.30;5.10;;;2.70;73.00;;;;;;5052276;28;20029;-60
2022/01/30 08:50:24;;;;;;;6.78;4.15;;;2.80;73.30;;;;;;5051868;28;20029;-59
2022/01/30 08:52:51;;;;;;;4.50;3.60;;;2.70;72.90;;;;;;5052331;28;20032;-60
2022/01/30 08:55:18;;;;;;;6.20;5.60;;;2.70;72.90;;;;;;5040369;28;20038;-60
2022/01/30 08:57:44;;;;;;;5.38;3.95;;;2.80;73.20;;;;;;5031736;28;20013;-60
2022/01/30 09:00:13;;;;;;;7.53;5.93;;;2.90;73.00;;;;;;5031533;28;20037;-60
2022/01/30 09:02:39;;;;;;;5.55;4.07;;;2.90;73.40;;;;;;5046584;28;20589;-60
2022/01/30 09:05:06;;;;;;;7.85;6.13;;;2.90;73.30;;;;;;5041283;28;20031;-60
2022/01/30 09:07:32;;;;;;;7.97;4.60;;;2.90;73.60;;;;;;5035034;28;20025;-58
2022/01/30 09:09:58;;;;;;;5.70;4.35;;;3.00;73.50;;;;;;5034335;28;20101;-59
2022/01/30 09:12:24;;;;;;;7.60;5.95;;;2.90;73.50;;;;;;5038600;28;20041;-61
2022/01/30 09:14:50;;;;;;;5.82;4.63;;;3.00;74.00;;;;;;5035137;28;20033;-59
2022/01/30 09:17:17;;;;;;;7.10;5.93;;;3.00;73.90;;;;;;5035672;28;20029;-60
2022/01/30 09:19:46;;;;;;;6.57;4.68;;;3.00;74.50;;;;;;5034903;28;20444;-60
2022/01/30 09:22:14;;;;;;;7.25;5.78;;;3.00;74.20;;;;;;5037864;28;20057;-59
2022/01/30 09:24:40;;;;;;;7.50;6.00;;;3.00;74.80;;;;;;5039439;28;20117;-59
2022/01/30 09:27:07;;;;;;;7.88;4.32;;;3.10;75.20;;;;;;5034078;28;20022;-59
2022/01/30 09:29:33;;;;;;;5.53;4.28;;;3.10;74.80;;;;;;5033288;28;20064;-60
2022/01/30 09:32:00;;;;;;;7.53;6.38;;;3.00;74.90;;;;;;5045922;28;20384;-59
2022/01/30 09:34:26;;;;;;;5.18;3.95;;;3.10;75.40;;;;;;5041381;28;20033;-60
2022/01/30 09:36:52;;;;;;;6.80;4.57;;;3.00;75.40;;;;;;5048828;28;20036;-59
2022/01/30 09:39:18;;;;;;;6.50;5.80;;;3.00;75.40;;;;;;5027784;28;20033;-60
2022/01/30 09:41:45;;;;;;;9.82;6.47;;;3.10;75.70;;;;;;5033608;28;20033;-60
2022/01/30 09:44:11;;;;;;;7.20;4.22;;;3.10;75.70;;;;;;5038788;28;20055;-60
2022/01/30 09:46:42;;;;;;;8.20;4.40;;;3.10;75.40;;;;;;5033614;28;20021;-60
2022/01/30 09:49:08;;;;;;;6.63;5.47;;;3.10;75.50;;;;;;5035488;28;20036;-60
2022/01/30 09:51:35;;;;;;;7.85;4.35;;;3.10;75.80;;;;;;5038139;28;20022;-60
2022/01/30 09:54:02;;;;;;;7.38;6.07;;;3.20;75.50;;;;;;5031247;28;20025;-60
2022/01/30 09:56:28;;;;;;;7.03;5.05;;;3.20;76.00;;;;;;5030908;28;20036;-60
2022/01/30 09:58:54;;;;;;;7.07;4.30;;;3.20;76.30;;;;;;5028652;28;20028;-60
2022/01/30 10:01:20;;;;;;;6.85;4.70;;;3.20;75.70;;;;;;5032224;28;20022;-60
2022/01/30 10:03:49;;;;;;;7.35;6.35;;;3.20;75.80;;;;;;5034260;28;20076;-60
2022/01/30 10:06:20;;;;;;;8.52;6.75;;;3.30;76.30;;;;;;5037259;28;20425;-59
2022/01/30 10:08:48;;;;;;;7.32;4.78;;;3.40;76.20;;;;;;5036056;28;20026;-59
2022/01/30 10:11:28;;;;;;;7.50;6.60;;;3.40;75.90;;;;;;5037659;28;20044;-60
2022/01/30 10:14:04;;;;;;;7.43;4.93;;;3.50;76.30;;;;;;5039987;28;20033;-59
2022/01/30 10:16:36;;;;;;;8.50;7.25;;;3.50;75.90;;;;;;5037585;28;20041;-60
2022/01/30 10:19:17;;;;;;;7.07;5.20;;;3.60;76.20;;;;;;5037262;28;20049;-60
2022/01/30 10:21:44;;;;;;;7.47;5.23;;;3.60;75.80;;;;;;5033861;28;20454;-60
2022/01/30 10:24:27;;;;;;;8.93;7.32;;;3.60;75.90;;;;;;5035045;28;20052;-60
2022/01/30 10:26:59;;;;;;;7.25;5.07;;;3.70;75.70;;;;;;5036193;28;20083;-59
2022/01/30 10:29:27;;;;;;;7.45;5.18;;;3.70;75.60;;;;;;5036433;28;20028;-60
2022/01/30 10:31:59;;;;;;;7.72;6.68;;;3.70;75.50;;;;;;5037606;28;20033;-60
2022/01/30 10:34:29;;;;;;;7.72;4.95;;;3.90;75.80;;;;;;5035233;28;20469;-60
2022/01/30 10:37:21;;;;;;;6.85;4.75;;;3.90;75.20;;;;;;5037479;28;20040;-60
2022/01/30 10:39:59;;;;;;;6.97;4.35;;;4.00;75.00;;;;;;5037126;28;20032;-60
2022/01/30 10:42:39;;;;;;;7.13;6.07;;;4.00;75.10;;;;;;5034378;28;20056;-59
2022/01/30 10:45:13;;;;;;;7.30;6.32;;;4.10;74.80;;;;;;5036492;28;20028;-60
2022/01/30 10:47:40;;;;;;;8.23;5.15;;;4.20;74.50;;;;;;5035222;28;20049;-59
2022/01/30 10:50:15;;;;;;;8.32;6.43;;;4.20;74.00;;;;;;5036932;28;20021;-60
2022/01/30 10:52:51;;;;;;;7.82;4.78;;;4.30;74.40;;;;;;5033707;28;20040;-60
2022/01/30 10:55:16;;;;;;;7.30;6.50;;;4.30;74.20;;;;;;5034634;28;20018;-60
2022/01/30 10:57:45;;;;;;;6.68;4.57;;;4.40;74.10;;;;;;5036021;28;20496;-58
2022/01/30 11:00:11;;;;;;;8.32;6.63;;;4.50;73.70;;;;;;5047842;28;20044;-61
2022/01/30 11:02:38;;;;;;;6.53;4.63;;;4.50;73.80;;;;;;5053970;28;20021;-61
2022/01/30 11:05:07;;;;;;;5.95;5.22;;;4.50;73.50;;;;;;5044861;28;20057;-61
2022/01/30 11:07:37;;;;;;;6.65;5.32;;;4.60;73.60;;;;;;5035849;28;20053;-61
2022/01/30 11:10:23;;;;;;;5.85;4.35;;;4.70;73.20;;;;;;5034914;28;20018;-61
2022/01/30 11:15:54;;;;;;;6.72;4.10;;;4.60;73.00;;;;;;5023794;28;20034;-60
2022/01/30 11:18:19;;;;;;;6.20;5.43;;;4.60;73.00;;;;;;5036363;28;20103;-61
2022/01/30 11:20:46;;;;;;;5.13;4.15;;;4.70;72.90;;;;;;5036759;28;20077;-61
2022/01/30 11:23:12;;;;;;;6.88;6.18;;;4.60;72.70;;;;;;5033593;28;20540;-61
2022/01/30 11:25:39;;;;;;;6.22;4.35;;;4.70;72.80;;;;;;5038126;28;20032;-63
2022/01/30 11:28:06;;;;;;;6.25;5.10;;;4.70;72.70;;;;;;5034784;28;20017;-63
2022/01/30 11:30:32;;;;;;;7.07;4.93;;;4.60;72.70;;;;;;5035724;28;20026;-63
2022/01/30 11:32:59;;;;;;;7.32;5.03;;;4.60;72.60;;;;;;5037441;28;20087;-62
2022/01/30 11:35:25;;;;;;;5.30;4.50;;;4.60;72.60;;;;;;5041028;28;20411;-62
2022/01/30 11:37:52;;;;;;;6.53;5.25;;;4.70;72.70;;;;;;5040128;28;20034;-62
2022/01/30 11:40:19;;;;;;;7.28;4.80;;;4.70;72.70;;;;;;5043109;28;20037;-62
2022/01/30 11:42:48;;;;;;;5.28;4.57;;;4.70;72.60;;;;;;5053985;28;20018;-63
2022/01/30 11:45:18;;;;;;;7.30;4.65;;;4.70;72.50;;;;;;5040475;28;20056;-63
2022/01/30 11:47:52;;;;;;;6.40;4.47;;;4.60;72.60;;;;;;5035634;28;20018;-62
2022/01/30 11:50:25;;;;;;;5.45;4.07;;;4.70;72.70;;;;;;5035704;28;20025;-62
2022/01/30 11:52:53;;;;;;;7.75;4.40;;;4.70;72.80;;;;;;5053398;28;20029;-62
2022/01/30 11:55:40;;;;;;;6.10;4.43;;;4.70;72.60;;;;;;5037929;28;20052;-64
2022/01/30 11:58:07;;;;;;;6.53;4.53;;;4.70;72.80;;;;;;5048378;28;20052;-62
2022/01/30 12:00:38;;;;;;;4.90;4.30;;;4.70;72.80;;;;;;5047536;28;20500;-62
2022/01/30 12:03:26;;;;;;;8.30;5.90;;;4.70;72.60;;;;;;5035473;28;20021;-62
2022/01/30 12:05:54;;;;;;;8.45;6.00;;;4.70;72.60;;;;;;5034690;28;20026;-62
2022/01/30 12:08:41;;;;;;;8.70;6.78;;;4.80;72.60;;;;;;5035402;28;20033;-62
2022/01/30 12:11:39;;;;;;;7.28;4.57;;;4.80;72.30;;;;;;5038089;28;20029;-62
2022/01/30 12:14:20;;;;;;;6.80;4.05;;;4.70;72.20;;;;;;5034438;28;20527;-62
2022/01/30 12:16:49;;;;;;;4.78;4.00;;;4.70;72.50;;;;;;5049848;28;20103;-62
2022/01/30 12:19:42;;;;;;;7.57;6.00;;;4.70;72.70;;;;;;5034415;28;20032;-62
2022/01/30 12:22:16;;;;;;;7.15;6.43;;;4.70;72.70;;;;;;5034689;28;20527;-62
2022/01/30 12:24:43;;;;;;;7.85;6.57;;;4.80;72.60;;;;;;5033733;28;20061;-62
2022/01/30 12:27:08;;;;;;;9.23;4.72;;;4.90;72.50;;;;;;5034970;28;20477;-62
2022/01/30 12:29:49;;;;;;;7.60;5.00;;;4.80;72.20;;;;;;5035728;28;20079;-62
2022/01/30 12:32:22;;;;;;;7.50;4.63;;;4.80;72.50;;;;;;5025966;28;20048;-62
2022/01/30 12:34:56;;;;;;;7.30;4.55;;;4.80;72.60;;;;;;5043234;28;20029;-63
2022/01/30 12:37:28;;;;;;;5.75;4.97;;;4.80;72.70;;;;;;5034325;28;20574;-63
2022/01/30 12:39:54;;;;;;;;;;;4.80;72.60;;;;;;5041910;28;20026;-62
2022/01/30 12:42:22;;;;;;;7.75;6.03;;;4.80;72.60;;;;;;5034341;28;19924;-62
2022/01/30 12:44:48;;;;;;;6.65;4.90;;;4.90;72.40;;;;;;5036543;28;20112;-62
2022/01/30 12:47:16;;;;;;;7.78;6.85;;;4.90;72.20;;;;;;5032794;28;20032;-62
2022/01/30 12:49:51;;;;;;;10.13;5.70;;;4.90;72.20;;;;;;5037031;28;20025;-63
2022/01/30 12:52:32;;;;;;;9.55;6.85;;;4.90;72.20;;;;;;5034957;28;20397;-63
2022/01/30 12:55:05;;;;;;;7.15;5.20;;;4.90;72.10;;;;;;5036755;28;20033;-63
2022/01/30 12:57:31;;;;;;;8.63;7.25;;;4.80;71.90;;;;;;5030979;28;20538;-63
2022/01/30 12:59:59;;;;;;;8.35;7.45;;;4.80;72.10;;;;;;5036293;28;20021;-63
2022/01/30 13:02:26;;;;;;;9.55;7.40;;;4.80;72.00;;;;;;5036614;28;20465;-62
2022/01/30 13:05:03;;;;;;;8.60;7.28;;;4.80;72.00;;;;;;5035748;28;20025;-62
2022/01/30 13:07:29;;;;;;;9.20;5.13;;;4.70;71.80;;;;;;5041542;28;20024;-61
2022/01/30 13:10:13;;;;;;;12.63;6.22;;;4.70;71.90;;;;;;5046754;28;20025;-62
2022/01/30 13:12:41;;;;;;;8.85;7.43;;;4.60;72.00;;;;;;5052444;28;20472;-62
2022/01/30 13:15:12;;;;;;;9.43;6.00;;;4.70;72.00;;;;;;5040595;28;20028;-62
2022/01/30 13:17:39;;;;;;;9.85;8.05;;;4.60;71.80;;;;;;5052417;28;20060;-62
2022/01/30 13:20:06;;;;;;;8.95;5.78;;;4.70;72.00;;;;;;5052005;28;20496;-63
2022/01/30 13:22:37;;;;;;;12.18;8.25;;;4.60;71.80;;;;;;5052475;28;20052;-62
2022/01/30 13:25:11;;;;;;;9.30;6.22;;;4.60;72.00;;;;;;5052510;28;20515;-62
2022/01/30 13:27:38;;;;;;;9.68;7.88;;;4.60;72.00;;;;;;5052269;28;20704;-62
2022/01/30 13:30:05;;;;;;;9.50;8.32;;;4.60;72.40;;;;;;5052091;28;20074;-62
2022/01/30 13:32:31;;;;;;;10.23;5.90;;;4.60;72.60;;;;;;5038479;28;20061;-62
2022/01/30 13:34:59;;;;;;;7.30;4.85;;;4.60;72.70;;;;;;5051724;28;20067;-62
2022/01/30 13:37:26;;;;;;;8.80;6.80;;;4.60;72.90;;;;;;5039867;28;20473;-62
2022/01/30 13:42:48;;;;;;;8.60;7.80;;;4.70;72.80;;;;;;5056375;28;20099;-62
2022/01/30 13:48:07;;;;;;;9.57;7.40;;;4.80;72.90;;;;;;5055837;28;20045;-62
2022/01/30 13:50:40;;;;;;;7.65;5.15;;;4.80;73.10;;;;;;5033043;28;20041;-62
2022/01/30 13:53:07;;;;;;;10.50;7.97;;;4.90;73.00;;;;;;5056013;28;20020;-62
2022/01/30 13:55:51;;;;;;;9.02;7.55;;;4.90;73.10;;;;;;5056009;28;20039;-62